createdAt,value
2019-05-19T00:01:00.792Z,12.73
2019-05-19T00:03:29.793Z,9.50
2019-05-19T00:05:58.736Z,6.05
2019-05-19T00:08:27.823Z,8.35
2019-05-19T00:10:56.828Z,5.97
2019-05-19T00:13:25.814Z,4.22
2019-05-19T00:15:54.718Z,4.55
2019-05-19T00:18:23.622Z,3.72
2019-05-19T00:20:52.564Z,3.30
2019-05-19T00:23:21.450Z,4.12
2019-05-19T00:25:50.334Z,2.55
2019-05-19T00:28:19.518Z,4.37
2019-05-19T00:30:48.419Z,4.10
2019-05-19T00:33:17.310Z,5.20
2019-05-19T00:35:46.482Z,2.98
2019-05-19T00:38:15.575Z,3.37
2019-05-19T00:40:44.425Z,3.55
2019-05-19T00:43:13.378Z,3.62
2019-05-19T00:45:42.277Z,2.87
2019-05-19T00:48:11.143Z,3.65
2019-05-19T00:50:40.229Z,4.08
2019-05-19T00:53:09.118Z,5.78
2019-05-19T00:55:38.106Z,5.75
2019-05-19T00:58:08.144Z,4.03
2019-05-19T01:00:37.123Z,5.67
2019-05-19T01:03:06.111Z,6.15
2019-05-19T01:05:35.055Z,4.15
2019-05-19T01:08:05.473Z,4.45
2019-05-19T01:10:34.627Z,5.55
2019-05-19T01:13:03.586Z,4.62
2019-05-19T01:15:32.683Z,4.10
2019-05-19T01:18:01.577Z,3.85
2019-05-19T01:20:30.539Z,3.00
2019-05-19T01:22:59.389Z,3.70
2019-05-19T01:25:28.271Z,3.72
2019-05-19T01:27:57.203Z,4.58
2019-05-19T01:30:26.254Z,4.45
2019-05-19T01:32:55.490Z,4.45
2019-05-19T01:35:25.217Z,5.33
2019-05-19T01:37:54.123Z,7.78
2019-05-19T01:40:23.062Z,9.53
2019-05-19T01:42:51.942Z,6.83
2019-05-19T01:45:20.827Z,14.80
2019-05-19T01:47:49.959Z,22.27
2019-05-19T01:50:18.969Z,17.05
2019-05-19T01:52:47.943Z,37.78
2019-05-19T01:55:17.297Z,18.17
2019-05-19T01:57:46.262Z,15.72
2019-05-19T02:00:15.320Z,15.43
2019-05-19T02:02:44.247Z,8.45
2019-05-19T02:05:13.838Z,20.60
2019-05-19T02:07:42.888Z,18.65
2019-05-19T02:10:11.986Z,20.45
2019-05-19T02:12:40.967Z,11.35
2019-05-19T02:15:10.212Z,16.23
2019-05-19T02:17:39.290Z,24.57
2019-05-19T02:20:10.775Z,7.28
2019-05-19T02:22:39.675Z,9.93
2019-05-19T02:25:09.263Z,18.98
2019-05-19T02:27:38.207Z,6.10
2019-05-19T02:30:10.925Z,9.03
2019-05-19T02:32:39.974Z,13.43
2019-05-19T02:35:09.784Z,3.37
2019-05-19T02:37:38.988Z,12.68
2019-05-19T02:40:08.826Z,4.65
2019-05-19T02:42:40.668Z,6.72
2019-05-19T02:45:10.595Z,9.88
2019-05-19T02:47:43.117Z,8.20
2019-05-19T02:50:13.166Z,4.60
2019-05-19T02:52:43.631Z,19.50
2019-05-19T02:55:12.913Z,9.55
2019-05-19T02:57:43.546Z,5.95
2019-05-19T03:00:13.249Z,16.05
2019-05-19T03:02:42.162Z,13.28
2019-05-19T03:05:11.337Z,4.03
2019-05-19T03:07:40.215Z,15.30
2019-05-19T03:10:09.407Z,13.98
2019-05-19T03:12:38.392Z,34.48
2019-05-19T03:15:07.642Z,20.68
2019-05-19T03:17:36.531Z,8.80
2019-05-19T03:20:06.958Z,6.12
2019-05-19T03:22:35.974Z,8.73
2019-05-19T03:25:07.291Z,7.33
2019-05-19T03:27:36.658Z,10.65
2019-05-19T03:30:26.313Z,26.37
2019-05-19T03:32:56.998Z,20.30
2019-05-19T03:35:25.879Z,32.48
2019-05-19T03:37:54.764Z,12.50
2019-05-19T03:40:23.730Z,26.60
2019-05-19T03:42:52.625Z,14.20
2019-05-19T03:45:21.605Z,20.15
2019-05-19T03:47:50.545Z,13.70
2019-05-19T03:50:19.584Z,28.47
2019-05-19T03:52:48.580Z,21.65
2019-05-19T03:55:17.517Z,45.25
2019-05-19T03:57:46.414Z,29.25
2019-05-19T04:00:16.399Z,14.18
2019-05-19T04:02:45.328Z,14.15
2019-05-19T04:05:14.325Z,21.80
2019-05-19T04:07:43.269Z,17.35
2019-05-19T04:10:12.401Z,15.70
2019-05-19T04:12:41.314Z,22.15
2019-05-19T04:15:10.342Z,9.40
2019-05-19T04:17:39.238Z,24.18
2019-05-19T04:20:08.519Z,19.42
2019-05-19T04:22:37.917Z,11.75
2019-05-19T04:25:06.999Z,25.37
2019-05-19T04:27:35.977Z,16.17
2019-05-19T04:30:06.332Z,27.80
2019-05-19T04:32:35.235Z,6.10
2019-05-19T04:35:05.247Z,5.72
2019-05-19T04:37:34.257Z,6.22
2019-05-19T04:40:03.512Z,3.87
2019-05-19T04:42:32.578Z,5.05
2019-05-19T04:45:02.004Z,2.90
2019-05-19T04:47:30.879Z,8.10
2019-05-19T04:49:59.759Z,5.17
2019-05-19T04:52:28.983Z,3.55
2019-05-19T04:54:57.915Z,7.20
2019-05-19T04:57:26.801Z,7.60
2019-05-19T04:59:55.735Z,7.00
2019-05-19T05:02:24.941Z,7.05
2019-05-19T05:04:53.911Z,6.45
2019-05-19T05:07:22.901Z,6.75
2019-05-19T05:09:52.002Z,6.53
2019-05-19T05:12:20.879Z,6.67
2019-05-19T05:14:49.911Z,8.08
2019-05-19T05:17:20.623Z,6.17
2019-05-19T05:19:49.687Z,7.50
2019-05-19T05:22:22.132Z,7.33
2019-05-19T05:24:49.166Z,7.65
2019-05-19T05:27:18.183Z,10.38
2019-05-19T05:29:47.185Z,8.65
2019-05-19T05:32:16.745Z,14.78
2019-05-19T05:34:45.695Z,10.10
2019-05-19T05:37:14.595Z,7.28
2019-05-19T05:39:43.553Z,8.18
2019-05-19T05:42:12.418Z,7.50
2019-05-19T05:44:41.346Z,6.15
2019-05-19T05:47:10.230Z,8.03
2019-05-19T05:49:39.178Z,8.40
2019-05-19T05:52:08.105Z,8.35
2019-05-19T05:54:37.825Z,3.58
2019-05-19T05:57:06.892Z,4.72
2019-05-19T05:59:35.976Z,7.47
2019-05-19T06:02:05.111Z,5.42
2019-05-19T06:04:34.294Z,6.22
2019-05-19T06:07:03.158Z,7.42
2019-05-19T06:09:32.591Z,8.68
2019-05-19T06:12:01.518Z,5.62
2019-05-19T06:14:30.496Z,5.05
2019-05-19T06:16:59.741Z,4.50
2019-05-19T06:19:31.435Z,5.10
2019-05-19T06:22:01.409Z,6.58
2019-05-19T06:24:30.840Z,7.15
2019-05-19T06:27:00.097Z,4.80
2019-05-19T06:29:29.634Z,8.78
2019-05-19T06:32:00.418Z,5.10
2019-05-19T06:34:29.381Z,7.90
2019-05-19T06:36:59.161Z,6.62
2019-05-19T06:39:28.267Z,5.60
2019-05-19T06:41:57.501Z,5.33
2019-05-19T06:44:26.548Z,5.75
2019-05-19T06:46:55.548Z,7.60
2019-05-19T06:49:24.479Z,5.08
2019-05-19T06:51:54.062Z,6.12
2019-05-19T06:54:23.006Z,6.40
2019-05-19T06:56:52.996Z,5.67
2019-05-19T06:59:22.067Z,6.45
2019-05-19T07:01:51.067Z,5.60
2019-05-19T07:04:20.918Z,4.67
2019-05-19T07:06:53.380Z,6.95
2019-05-19T07:09:23.346Z,5.12
2019-05-19T07:11:53.072Z,4.90
2019-05-19T07:14:22.843Z,6.35
2019-05-19T07:16:52.007Z,4.47
2019-05-19T07:19:21.546Z,4.58
2019-05-19T07:21:50.991Z,5.90
2019-05-19T07:24:20.301Z,4.00
2019-05-19T07:26:49.532Z,4.95
2019-05-19T07:29:18.983Z,6.10
2019-05-19T07:31:47.888Z,6.10
2019-05-19T07:34:16.836Z,5.45
2019-05-19T07:36:45.775Z,5.92
2019-05-19T07:39:15.613Z,4.67
2019-05-19T07:41:45.131Z,5.97
2019-05-19T07:44:14.351Z,5.30
2019-05-19T07:46:45.001Z,4.40
2019-05-19T07:49:15.926Z,5.67
2019-05-19T07:51:45.096Z,5.15
2019-05-19T07:54:14.298Z,5.17
2019-05-19T07:56:43.402Z,6.90
2019-05-19T07:59:12.387Z,5.65
2019-05-19T08:01:42.286Z,4.62
2019-05-19T08:04:11.716Z,3.98
2019-05-19T08:06:41.870Z,5.08
2019-05-19T08:09:13.208Z,7.33
2019-05-19T08:11:43.484Z,5.37
2019-05-19T08:14:13.233Z,4.85
2019-05-19T08:16:42.974Z,5.33
2019-05-19T08:19:12.912Z,3.80
2019-05-19T08:21:41.862Z,3.83
2019-05-19T08:24:10.979Z,4.42
2019-05-19T08:26:40.359Z,2.90
2019-05-19T08:29:13.092Z,3.02
2019-05-19T08:31:42.105Z,3.77
2019-05-19T08:34:12.194Z,3.98
2019-05-19T08:36:43.323Z,5.78
2019-05-19T08:39:14.328Z,3.83
2019-05-19T08:41:43.753Z,3.75
2019-05-19T08:44:17.283Z,3.33
2019-05-19T08:46:46.053Z,2.65
2019-05-19T08:49:14.991Z,3.40
2019-05-19T08:51:44.938Z,3.30
2019-05-19T08:54:18.315Z,3.05
2019-05-19T08:56:47.964Z,3.62
2019-05-19T08:59:16.942Z,2.55
2019-05-19T09:01:46.372Z,2.37
2019-05-19T09:04:15.384Z,2.45
2019-05-19T09:06:44.377Z,4.15
2019-05-19T09:09:13.351Z,3.58
2019-05-19T09:11:42.943Z,3.10
2019-05-19T09:14:12.098Z,3.52
2019-05-19T09:16:41.053Z,4.03
2019-05-19T09:19:10.189Z,4.03
2019-05-19T09:21:41.345Z,4.17
2019-05-19T09:24:11.043Z,5.10
2019-05-19T09:26:40.951Z,4.87
2019-05-19T09:29:10.983Z,4.70
2019-05-19T09:31:41.476Z,4.05
2019-05-19T09:34:10.966Z,3.22
2019-05-19T09:36:40.550Z,5.08
2019-05-19T09:39:09.905Z,6.97
2019-05-19T09:41:39.230Z,4.05
2019-05-19T09:44:08.923Z,5.83
2019-05-19T09:46:38.943Z,4.30
2019-05-19T09:49:27.784Z,4.15
2019-05-19T09:51:56.978Z,3.72
2019-05-19T09:54:25.859Z,4.17
2019-05-19T09:56:56.390Z,3.77
2019-05-19T09:59:26.132Z,4.50
2019-05-19T10:01:56.544Z,4.55
2019-05-19T10:04:26.521Z,4.72
2019-05-19T10:06:56.589Z,4.37
2019-05-19T10:09:45.099Z,5.28
2019-05-19T10:12:14.916Z,3.33
2019-05-19T10:14:43.806Z,3.58
2019-05-19T10:17:14.385Z,5.15
2019-05-19T10:19:44.617Z,4.70
2019-05-19T10:22:14.209Z,4.12
2019-05-19T10:24:59.296Z,5.05
2019-05-19T10:27:15.079Z,4.72
2019-05-19T10:29:46.550Z,4.33
2019-05-19T10:32:15.915Z,5.37
2019-05-19T10:34:44.883Z,4.30
2019-05-19T10:37:14.251Z,4.60
2019-05-19T10:39:46.215Z,5.03
2019-05-19T10:42:15.854Z,4.55
2019-05-19T10:44:45.460Z,4.45
2019-05-19T10:47:14.586Z,5.20
2019-05-19T10:49:43.916Z,5.72
2019-05-19T10:52:12.863Z,5.55
2019-05-19T10:54:41.956Z,4.55
2019-05-19T10:57:11.301Z,5.20
2019-05-19T10:59:41.516Z,4.78
2019-05-19T11:02:16.540Z,3.47
2019-05-19T11:04:42.838Z,4.58
2019-05-19T11:07:11.782Z,4.85
2019-05-19T11:09:40.916Z,4.45
2019-05-19T11:12:09.805Z,4.45
2019-05-19T11:14:38.738Z,3.72
2019-05-19T11:17:07.923Z,3.47
2019-05-19T11:19:36.879Z,3.62
2019-05-19T11:22:05.974Z,4.87
2019-05-19T11:24:34.854Z,4.65
2019-05-19T11:27:03.746Z,3.77
2019-05-19T11:29:33.030Z,3.35
2019-05-19T11:32:02.567Z,4.15
2019-05-19T11:34:31.520Z,2.92
2019-05-19T11:37:00.927Z,3.20
2019-05-19T11:39:29.938Z,3.08
2019-05-19T11:41:59.104Z,3.37
2019-05-19T11:44:28.003Z,2.62
2019-05-19T11:46:56.938Z,3.25
2019-05-19T11:49:27.272Z,3.00
2019-05-19T11:51:56.297Z,2.37
2019-05-19T11:54:25.476Z,2.92
2019-05-19T11:56:54.364Z,3.37
2019-05-19T11:59:23.304Z,4.10
2019-05-19T12:01:52.269Z,3.60
2019-05-19T12:04:21.217Z,2.65
2019-05-19T12:06:50.087Z,3.30
2019-05-19T12:09:19.330Z,2.65
2019-05-19T12:11:48.310Z,2.80
2019-05-19T12:14:17.259Z,2.60
2019-05-19T12:16:46.480Z,2.22
2019-05-19T12:19:15.407Z,2.10
2019-05-19T12:21:44.298Z,2.50
2019-05-19T12:24:13.261Z,2.10
2019-05-19T12:26:42.142Z,2.52
2019-05-19T12:29:11.799Z,2.30
2019-05-19T12:31:40.773Z,2.08
2019-05-19T12:34:09.723Z,1.90
2019-05-19T12:36:38.605Z,2.20
2019-05-19T12:39:07.498Z,2.33
2019-05-19T12:41:36.847Z,2.87
2019-05-19T12:44:05.998Z,2.45
2019-05-19T12:46:35.176Z,2.08
2019-05-19T12:49:04.096Z,2.40
2019-05-19T12:51:32.998Z,2.50
2019-05-19T12:54:02.371Z,1.80
2019-05-19T12:56:39.719Z,2.30
2019-05-19T12:59:01.914Z,2.10
2019-05-19T13:01:30.825Z,1.62
2019-05-19T13:03:59.786Z,1.92
2019-05-19T13:06:28.737Z,1.82
2019-05-19T13:08:57.629Z,2.35
2019-05-19T13:11:26.521Z,1.90
2019-05-19T13:13:55.606Z,2.10
2019-05-19T13:16:24.554Z,3.25
2019-05-19T13:18:53.650Z,1.77
2019-05-19T13:21:22.587Z,2.52
2019-05-19T13:23:51.679Z,2.10
2019-05-19T13:26:20.616Z,2.25
2019-05-19T13:28:49.495Z,2.60
2019-05-19T13:31:18.736Z,6.50
2019-05-19T13:33:47.635Z,8.83
2019-05-19T13:36:17.634Z,10.85
2019-05-19T13:38:46.842Z,14.13
2019-05-19T13:41:17.110Z,11.63
2019-05-19T13:43:46.850Z,12.58
2019-05-19T13:46:15.722Z,8.95
2019-05-19T13:48:44.659Z,9.60
2019-05-19T13:51:14.333Z,9.10
2019-05-19T13:53:43.311Z,9.33
2019-05-19T13:56:12.275Z,8.58
2019-05-19T13:58:41.203Z,9.23
2019-05-19T14:01:10.158Z,8.80
2019-05-19T14:03:39.040Z,8.45
2019-05-19T14:06:07.970Z,8.20
2019-05-19T14:08:37.056Z,8.45
2019-05-19T14:11:06.154Z,8.93
2019-05-19T14:13:35.042Z,8.28
2019-05-19T14:16:03.986Z,7.78
2019-05-19T14:18:32.881Z,9.98
2019-05-19T14:21:01.764Z,7.40
2019-05-19T14:23:30.911Z,7.50
2019-05-19T14:26:01.919Z,6.95
2019-05-19T14:28:30.861Z,8.40
2019-05-19T14:31:00.798Z,7.67
2019-05-19T14:33:29.735Z,7.15
2019-05-19T14:35:58.967Z,7.20
2019-05-19T14:38:27.939Z,6.25
2019-05-19T14:40:56.967Z,5.87
2019-05-19T14:43:27.458Z,6.53
2019-05-19T14:45:56.874Z,5.87
2019-05-19T14:48:25.964Z,5.83
2019-05-19T14:50:54.977Z,5.85
2019-05-19T14:53:23.853Z,6.12
2019-05-19T14:55:52.817Z,5.15
2019-05-19T14:58:22.834Z,5.15
2019-05-19T15:00:52.374Z,5.78
2019-05-19T15:03:21.298Z,6.08
2019-05-19T15:05:50.393Z,5.12
2019-05-19T15:08:20.979Z,6.03
2019-05-19T15:10:50.119Z,6.08
2019-05-19T15:13:19.360Z,5.47
2019-05-19T15:15:48.789Z,5.72
2019-05-19T15:18:20.747Z,5.37
2019-05-19T15:20:49.642Z,4.87
2019-05-19T15:23:19.119Z,4.53
2019-05-19T15:25:47.994Z,4.72
2019-05-19T15:28:16.878Z,4.67
2019-05-19T15:30:46.416Z,5.05
2019-05-19T15:33:15.497Z,4.80
2019-05-19T15:35:44.434Z,4.62
2019-05-19T15:38:13.326Z,4.47
2019-05-19T15:40:42.285Z,5.72
2019-05-19T15:43:11.160Z,4.45
2019-05-19T15:45:40.278Z,5.00
2019-05-19T15:48:09.361Z,5.40
2019-05-19T15:50:38.776Z,5.37
2019-05-19T15:53:07.940Z,6.55
2019-05-19T15:55:36.899Z,6.33
2019-05-19T15:58:16.261Z,6.25
2019-05-19T16:00:36.371Z,6.37
2019-05-19T16:03:05.863Z,6.45
2019-05-19T16:05:35.013Z,5.78
2019-05-19T16:08:03.938Z,5.72
2019-05-19T16:10:32.831Z,5.78
2019-05-19T16:13:01.768Z,6.10
2019-05-19T16:15:30.669Z,6.20
2019-05-19T16:17:59.608Z,6.17
2019-05-19T16:20:28.505Z,6.45
2019-05-19T16:22:57.907Z,6.78
2019-05-19T16:25:26.799Z,6.47
2019-05-19T16:27:55.791Z,6.45
2019-05-19T16:30:24.724Z,5.72
2019-05-19T16:32:53.670Z,5.42
2019-05-19T16:35:22.566Z,5.67
2019-05-19T16:37:51.597Z,7.10
2019-05-19T16:40:20.786Z,5.53
2019-05-19T16:42:49.661Z,6.45
2019-05-19T16:45:19.809Z,5.40
2019-05-19T16:47:49.377Z,5.70
2019-05-19T16:50:19.006Z,6.10
2019-05-19T16:52:48.177Z,10.30
2019-05-19T16:55:18.641Z,6.58
2019-05-19T16:57:47.570Z,7.37
2019-05-19T17:00:17.212Z,7.35
2019-05-19T17:02:46.140Z,9.20
2019-05-19T17:05:16.623Z,6.12
2019-05-19T17:07:46.069Z,6.45
2019-05-19T17:10:15.190Z,6.53
2019-05-19T17:12:44.084Z,6.75
2019-05-19T17:15:13.631Z,6.10
2019-05-19T17:17:42.573Z,7.83
2019-05-19T17:20:11.603Z,7.92
2019-05-19T17:22:41.144Z,6.45
2019-05-19T17:25:10.652Z,5.58
2019-05-19T17:27:39.653Z,5.85
2019-05-19T17:30:10.465Z,6.20
2019-05-19T17:32:39.368Z,6.12
2019-05-19T17:35:08.800Z,6.17
2019-05-19T17:37:37.800Z,7.08
2019-05-19T17:40:07.274Z,7.20
2019-05-19T17:42:37.285Z,5.03
2019-05-19T17:45:07.520Z,5.35
2019-05-19T17:47:36.402Z,5.30
2019-05-19T17:50:06.464Z,5.00
2019-05-19T17:52:35.481Z,5.62
2019-05-19T17:55:05.794Z,5.40
2019-05-19T17:57:35.570Z,4.87
2019-05-19T18:00:06.165Z,4.65
2019-05-19T18:02:35.113Z,6.15
2019-05-19T18:05:04.510Z,4.28
2019-05-19T18:07:33.462Z,3.62
2019-05-19T18:10:02.462Z,3.80
2019-05-19T18:12:31.600Z,3.35
2019-05-19T18:15:03.344Z,3.85
2019-05-19T18:17:32.184Z,4.20
2019-05-19T18:20:01.123Z,4.55
2019-05-19T18:22:30.144Z,3.75
2019-05-19T18:24:59.042Z,4.33
2019-05-19T18:27:28.015Z,4.05
2019-05-19T18:29:57.099Z,3.67
2019-05-19T18:32:26.358Z,3.33
2019-05-19T18:34:55.642Z,4.22
2019-05-19T18:37:24.599Z,3.70
2019-05-19T18:39:53.478Z,3.55
2019-05-19T18:42:22.356Z,3.87
2019-05-19T18:44:51.371Z,3.92
2019-05-19T18:47:20.355Z,4.20
2019-05-19T18:49:49.339Z,3.65
2019-05-19T18:52:18.294Z,3.83
2019-05-19T18:54:47.294Z,3.90
2019-05-19T18:57:16.251Z,2.80
2019-05-19T18:59:47.709Z,4.28
2019-05-19T19:02:15.965Z,4.35
2019-05-19T19:04:44.901Z,3.80
2019-05-19T19:07:13.868Z,2.83
2019-05-19T19:09:42.785Z,2.95
2019-05-19T19:12:11.733Z,3.70
2019-05-19T19:14:40.613Z,3.65
2019-05-19T19:17:09.503Z,3.70
2019-05-19T19:19:38.452Z,4.10
2019-05-19T19:22:07.353Z,3.17
2019-05-19T19:24:38.536Z,3.30
2019-05-19T19:27:07.060Z,3.80
2019-05-19T19:29:37.493Z,3.90
2019-05-19T19:32:06.460Z,3.42
2019-05-19T19:34:35.420Z,3.70
2019-05-19T19:37:04.567Z,3.17
2019-05-19T19:39:33.541Z,2.90
2019-05-19T19:42:02.883Z,3.95
2019-05-19T19:44:32.098Z,3.55
2019-05-19T19:47:01.283Z,3.40
2019-05-19T19:49:30.208Z,3.62
2019-05-19T19:51:59.239Z,3.60
2019-05-19T19:54:28.124Z,4.15
2019-05-19T19:57:00.224Z,3.25
2019-05-19T19:59:27.626Z,3.42
2019-05-19T20:01:56.707Z,3.08
2019-05-19T20:04:25.679Z,2.72
2019-05-19T20:06:54.644Z,3.62
2019-05-19T20:09:23.766Z,3.60
2019-05-19T20:11:52.920Z,3.80
2019-05-19T20:14:21.830Z,3.60
2019-05-19T20:16:50.796Z,5.42
2019-05-19T20:19:20.070Z,3.47
2019-05-19T20:21:49.242Z,3.40
2019-05-19T20:24:18.106Z,3.20
2019-05-19T20:26:47.213Z,3.35
2019-05-19T20:29:16.296Z,3.30
2019-05-19T20:31:45.302Z,3.75
2019-05-19T20:34:14.192Z,4.12
2019-05-19T20:36:43.440Z,4.12
2019-05-19T20:39:12.466Z,3.58
2019-05-19T20:41:41.424Z,3.08
2019-05-19T20:44:10.550Z,3.45
2019-05-19T20:46:39.531Z,3.30
2019-05-19T20:49:08.490Z,4.03
2019-05-19T20:51:37.767Z,4.20
2019-05-19T20:54:06.720Z,4.05
2019-05-19T20:56:35.608Z,4.20
2019-05-19T20:59:04.542Z,4.60
2019-05-19T21:01:33.477Z,4.28
2019-05-19T21:04:02.353Z,4.10
2019-05-19T21:06:31.387Z,4.42
2019-05-19T21:09:00.267Z,4.50
2019-05-19T21:11:29.916Z,4.50
2019-05-19T21:13:59.000Z,6.10
2019-05-19T21:16:28.421Z,4.53
2019-05-19T21:18:57.461Z,4.62
2019-05-19T21:21:38.763Z,5.42
2019-05-19T21:24:07.854Z,4.37
2019-05-19T21:26:36.735Z,3.55
2019-05-19T21:29:05.603Z,4.10
2019-05-19T21:31:34.548Z,6.00
2019-05-19T21:34:03.646Z,5.30
2019-05-19T21:36:32.523Z,6.75
2019-05-19T21:39:01.582Z,5.35
2019-05-19T21:41:30.490Z,3.92
2019-05-19T21:43:59.371Z,3.95
2019-05-19T21:46:28.299Z,4.00
2019-05-19T21:48:57.352Z,4.37
2019-05-19T21:51:26.230Z,6.25
2019-05-19T21:53:55.185Z,6.08
2019-05-19T21:56:24.068Z,4.22
2019-05-19T21:58:53.051Z,4.33
2019-05-19T22:01:23.519Z,6.35
2019-05-19T22:03:52.712Z,5.33
2019-05-19T22:06:23.269Z,5.80
2019-05-19T22:08:52.204Z,6.72
2019-05-19T22:11:21.185Z,5.78
2019-05-19T22:13:50.541Z,6.62
2019-05-19T22:16:19.426Z,5.55
2019-05-19T22:18:48.306Z,5.15
2019-05-19T22:21:17.561Z,4.90
2019-05-19T22:23:46.883Z,5.95
2019-05-19T22:26:16.721Z,5.30
2019-05-19T22:28:45.734Z,5.67
2019-05-19T22:31:14.910Z,7.45
2019-05-19T22:33:43.834Z,6.05
2019-05-19T22:36:12.715Z,4.60
2019-05-19T22:38:41.662Z,6.20
2019-05-19T22:41:10.708Z,7.22
2019-05-19T22:43:39.648Z,6.92
2019-05-19T22:46:08.544Z,6.12
2019-05-19T22:48:37.437Z,6.53
2019-05-19T22:51:06.366Z,5.50
2019-05-19T22:53:35.299Z,5.65
2019-05-19T22:56:04.214Z,6.03
2019-05-19T22:58:33.139Z,6.15
2019-05-19T23:01:02.456Z,6.83
2019-05-19T23:03:31.478Z,6.10
2019-05-19T23:06:00.452Z,6.10
2019-05-19T23:08:30.539Z,6.95
2019-05-19T23:10:59.441Z,5.72
2019-05-19T23:13:28.532Z,6.20
2019-05-19T23:15:58.480Z,5.87
2019-05-19T23:18:27.763Z,6.58
2019-05-19T23:20:56.707Z,6.35
2019-05-19T23:23:26.585Z,6.90
2019-05-19T23:25:55.458Z,4.45
2019-05-19T23:28:24.426Z,6.45
2019-05-19T23:30:53.302Z,6.33
2019-05-19T23:33:22.262Z,6.25
2019-05-19T23:35:51.157Z,4.40
2019-05-19T23:38:20.066Z,5.33
2019-05-19T23:40:49.007Z,4.85
2019-05-19T23:43:17.935Z,5.92
2019-05-19T23:45:46.827Z,5.50
2019-05-19T23:48:16.188Z,7.25
2019-05-19T23:50:45.281Z,6.55
2019-05-19T23:53:14.271Z,4.85
2019-05-19T23:55:43.248Z,5.08
2019-05-19T23:58:12.194Z,6.12
